Time;durP1;ratioP1;P1;durP2;ratioP2;P2;SDS_P1;SDS_P2;PMS_P1;PMS_P2;Temp;Humidity;BMP_temperature;BMP_pressure;BME280_temperature;BME280_humidity;BME280_pressure;Samples;Min_cycle;Max_cycle;Signal;HPM_P1;HPM_P2
2022/02/09 00:02:39;;;;;;;1.63;1.53;;;18.00;60.00;;;;;;5045604;28;20537;-82
2022/02/09 00:05:25;;;;;;;1.60;1.50;;;18.00;59.20;;;;;;5048596;27;20486;-82
2022/02/09 00:07:59;;;;;;;1.80;1.70;;;18.00;59.40;;;;;;5050376;27;20572;-81
2022/02/09 00:10:30;;;;;;;3.00;1.70;;;17.90;59.40;;;;;;5063304;27;20473;-81
2022/02/09 00:13:24;;;;;;;3.33;1.83;;;17.90;59.30;;;;;;5054251;27;20475;-82
2022/02/09 00:16:00;;;;;;;1.77;1.67;;;17.90;59.50;;;;;;5055412;27;20512;-82
2022/02/09 00:18:35;;;;;;;1.97;1.87;;;17.90;59.40;;;;;;5054212;27;20497;-82
2022/02/09 00:21:24;;;;;;;1.80;1.57;;;17.90;59.40;;;;;;5057041;27;20442;-82
2022/02/09 00:32:37;;;;;;;1.80;1.70;;;17.90;59.40;;;;;;5057471;27;20620;-82
2022/02/09 01:11:22;;;;;;;1.97;1.77;;;17.80;59.50;;;;;;5054100;28;20487;-82
2022/02/09 01:12:06;;;;;;;3.60;2.10;;;17.80;59.40;;;;;;5053240;28;20469;-82
2022/02/09 01:39:46;;;;;;;3.30;2.13;;;17.80;59.70;;;;;;5045876;27;20440;-82
2022/02/09 01:56:14;;;;;;;2.23;2.10;;;17.80;59.40;;;;;;5083724;28;20513;-83
2022/02/09 01:58:42;;;;;;;2.40;2.30;;;17.80;59.30;;;;;;5048906;27;20514;-81
2022/02/09 02:01:10;;;;;;;2.47;2.30;;;17.80;59.50;;;;;;5040723;27;20852;-81
2022/02/09 02:03:39;;;;;;;2.60;2.40;;;17.80;59.40;;;;;;5030950;27;20444;-82
2022/02/09 02:06:08;;;;;;;2.40;2.20;;;17.80;60.00;;;;;;5053444;27;20494;-82
2022/02/09 02:08:37;;;;;;;2.10;1.93;;;17.80;59.50;;;;;;5031583;27;20506;-82
2022/02/09 02:11:10;;;;;;;1.90;1.80;;;17.80;59.50;;;;;;5031244;27;20942;-82
2022/02/09 02:16:28;;;;;;;2.60;2.40;;;17.80;59.50;;;;;;5034763;27;20493;-82
2022/02/09 02:19:00;;;;;;;4.07;2.40;;;17.80;59.50;;;;;;5040029;28;20460;-82
2022/02/09 02:21:42;;;;;;;3.03;2.00;;;17.80;59.40;;;;;;5042961;27;20461;-82
2022/02/09 02:27:06;;;;;;;3.50;2.00;;;17.80;59.40;;;;;;5032104;28;20508;-82
2022/02/09 02:35:49;;;;;;;1.67;1.57;;;17.80;59.40;;;;;;4970894;28;21016;-82
2022/02/09 02:38:45;;;;;;;2.33;2.00;;;17.80;59.40;;;;;;5031988;28;20495;-82
2022/02/09 02:58:48;;;;;;;2.37;2.07;;;17.70;59.40;;;;;;5114141;27;20436;-82
2022/02/09 03:09:50;;;;;;;2.27;2.07;;;17.70;59.50;;;;;;5155577;27;20473;-82
2022/02/09 03:12:32;;;;;;;2.93;2.57;;;17.70;59.40;;;;;;5152523;27;20477;-82
2022/02/09 03:15:12;;;;;;;2.53;2.33;;;17.70;59.40;;;;;;5096941;27;20983;-82
2022/02/09 03:17:45;;;;;;;2.60;2.40;;;17.70;59.50;;;;;;5051658;28;20489;-82
2022/02/09 03:20:22;;;;;;;2.30;2.17;;;17.70;59.40;;;;;;5051260;28;20442;-82
2022/02/09 03:22:56;;;;;;;2.90;2.37;;;17.70;59.50;;;;;;5051495;27;20540;-82
2022/02/09 03:31:12;;;;;;;5.90;2.30;;;17.70;59.50;;;;;;5095383;27;20561;-82
2022/02/09 03:47:38;;;;;;;2.40;2.30;;;17.70;59.40;;;;;;5124470;27;20461;-82
2022/02/09 03:50:27;;;;;;;2.90;2.60;;;17.70;59.40;;;;;;5120623;27;20478;-82
2022/02/09 03:53:21;;;;;;;4.83;2.50;;;17.70;59.50;;;;;;5096856;27;20458;-81
2022/02/09 03:56:12;;;;;;;2.37;2.10;;;17.70;59.40;;;;;;5057119;27;20510;-82
2022/02/09 03:58:39;;;;;;;3.90;2.47;;;17.70;59.40;;;;;;5116089;27;20454;-81
2022/02/09 04:01:09;;;;;;;2.77;2.57;;;17.70;59.50;;;;;;5136723;27;20446;-81
2022/02/09 04:03:37;;;;;;;4.10;2.50;;;17.70;59.20;;;;;;5094102;27;20471;-81
2022/02/09 04:06:05;;;;;;;4.63;3.10;;;17.70;59.30;;;;;;5158559;27;20523;-81
2022/02/09 04:08:40;;;;;;;3.33;2.17;;;17.70;59.40;;;;;;5116671;27;20504;-81
2022/02/09 04:11:13;;;;;;;2.87;2.23;;;17.80;59.80;;;;;;5033491;28;20938;-81
2022/02/09 04:13:50;;;;;;;2.53;2.33;;;17.80;59.40;;;;;;5044751;27;20471;-81
2022/02/09 04:16:33;;;;;;;2.17;2.07;;;17.80;59.30;;;;;;5116960;27;20465;-82
2022/02/09 04:19:08;;;;;;;2.70;2.50;;;17.70;59.30;;;;;;5107520;27;20454;-81
2022/02/09 04:38:19;;;;;;;2.20;2.10;;;17.70;59.40;;;;;;5089428;27;20513;-81
2022/02/09 04:43:47;;;;;;;1.90;1.80;;;17.70;59.30;;;;;;5111521;27;20442;-81
2022/02/09 04:49:12;;;;;;;3.37;2.40;;;17.70;59.30;;;;;;5045570;27;20438;-81
2022/02/09 04:51:58;;;;;;;3.10;2.03;;;17.70;59.40;;;;;;5072182;27;20466;-81
2022/02/09 04:54:33;;;;;;;2.20;2.00;;;17.70;59.50;;;;;;5053094;27;21030;-81
2022/02/09 04:57:05;;;;;;;2.50;2.03;;;17.70;59.20;;;;;;5053292;28;20454;-81
2022/02/09 04:59:41;;;;;;;2.00;1.90;;;17.70;59.30;;;;;;5053191;28;20446;-81
2022/02/09 05:02:33;;;;;;;3.33;2.30;;;17.70;59.40;;;;;;5052949;28;20464;-81
2022/02/09 05:20:00;;;;;;;2.60;2.40;;;17.70;59.20;;;;;;5158776;27;20469;-82
2022/02/09 05:27:55;;;;;;;3.43;2.63;;;17.70;59.40;;;;;;5121061;28;20440;-81
2022/02/09 05:30:23;;;;;;;2.30;2.20;;;17.60;59.20;;;;;;5079813;28;20549;-81
2022/02/09 05:32:51;;;;;;;2.63;2.40;;;17.70;59.10;;;;;;5051063;28;20473;-81
2022/02/09 05:35:21;;;;;;;3.87;3.13;;;17.70;59.20;;;;;;5050725;28;20463;-81
2022/02/09 05:37:50;;;;;;;2.57;2.43;;;17.70;59.30;;;;;;5050141;28;20515;-81
2022/02/09 05:40:18;;;;;;;2.93;2.60;;;17.70;59.20;;;;;;5062826;27;20446;-81
2022/02/09 05:42:46;;;;;;;2.57;2.47;;;17.60;59.10;;;;;;5090814;27;20487;-81
2022/02/09 05:45:16;;;;;;;3.53;2.47;;;17.70;59.00;;;;;;5050483;28;20471;-82
2022/02/09 05:50:32;;;;;;;2.93;2.53;;;17.60;59.10;;;;;;5049817;28;20478;-82
2022/02/09 05:53:12;;;;;;;4.27;2.90;;;17.70;59.20;;;;;;5050751;28;20512;-82
2022/02/09 05:55:49;;;;;;;2.50;2.30;;;17.70;59.10;;;;;;5049699;28;20482;-82
2022/02/09 06:01:04;;;;;;;2.93;2.70;;;17.60;59.10;;;;;;5050460;28;20434;-82
2022/02/09 06:03:32;;;;;;;4.77;3.20;;;17.60;59.00;;;;;;5050599;28;20438;-82
2022/02/09 06:06:00;;;;;;;2.40;2.30;;;17.60;59.20;;;;;;5051045;28;20497;-82
2022/02/09 06:08:31;;;;;;;3.77;2.80;;;17.60;59.20;;;;;;5050847;27;20458;-82
2022/02/09 06:11:23;;;;;;;3.00;2.80;;;17.60;59.00;;;;;;5050415;28;20471;-82
2022/02/09 06:22:05;;;;;;;3.57;2.73;;;17.60;59.10;;;;;;5050527;28;20481;-82
2022/02/09 06:24:34;;;;;;;2.60;2.40;;;17.60;59.20;;;;;;5050561;28;20459;-82
2022/02/09 06:27:02;;;;;;;3.20;2.60;;;17.60;58.90;;;;;;5050216;28;20470;-82
2022/02/09 06:29:30;;;;;;;2.60;2.40;;;17.60;59.00;;;;;;5062575;27;20487;-82
2022/02/09 06:32:06;;;;;;;4.80;2.80;;;17.60;59.00;;;;;;5092519;27;20538;-82
2022/02/09 06:34:34;;;;;;;3.60;2.43;;;17.60;58.90;;;;;;5050314;28;20961;-82
2022/02/09 06:37:12;;;;;;;2.40;2.30;;;17.60;59.00;;;;;;5050177;28;20431;-82
2022/02/09 06:39:44;;;;;;;2.60;2.40;;;17.60;58.90;;;;;;5050135;28;20490;-82
2022/02/09 06:42:12;;;;;;;2.50;2.20;;;17.60;59.10;;;;;;5050300;28;20530;-82
2022/02/09 06:44:39;;;;;;;2.53;2.30;;;17.70;58.90;;;;;;5050140;28;20987;-82
2022/02/09 06:47:08;;;;;;;2.73;2.50;;;17.60;59.00;;;;;;5055071;27;20528;-82
2022/02/09 06:49:37;;;;;;;2.53;2.37;;;17.60;58.80;;;;;;5089306;27;20465;-82
2022/02/09 06:52:06;;;;;;;2.70;2.50;;;17.60;58.80;;;;;;5050167;28;20518;-82
2022/02/09 06:54:55;;;;;;;2.40;2.20;;;17.60;58.80;;;;;;5050233;27;20465;-82
2022/02/09 06:57:33;;;;;;;2.50;2.40;;;17.60;58.90;;;;;;5050365;28;20443;-82
2022/02/09 07:00:01;;;;;;;2.80;2.60;;;17.60;58.80;;;;;;5050340;28;20439;-82
2022/02/09 07:02:29;;;;;;;3.10;2.23;;;17.60;58.90;;;;;;5049851;28;20466;-82
2022/02/09 07:04:57;;;;;;;2.47;2.27;;;17.60;59.00;;;;;;5058954;27;20536;-82
2022/02/09 07:07:25;;;;;;;2.73;2.40;;;17.60;58.90;;;;;;5087876;27;20466;-82
2022/02/09 07:09:54;;;;;;;2.30;2.20;;;17.60;58.80;;;;;;5049995;28;21040;-82
2022/02/09 07:12:22;;;;;;;2.60;2.37;;;17.60;58.90;;;;;;5050660;28;20505;-82
2022/02/09 07:14:50;;;;;;;2.50;2.40;;;17.60;59.00;;;;;;5050659;28;20482;-82
2022/02/09 07:17:18;;;;;;;2.50;2.30;;;17.60;59.10;;;;;;5050423;28;20470;-82
2022/02/09 07:19:53;;;;;;;2.47;2.27;;;17.60;58.90;;;;;;5050092;28;20449;-82
2022/02/09 07:22:25;;;;;;;2.47;2.30;;;17.60;58.80;;;;;;5069993;27;20489;-82
2022/02/09 07:25:06;;;;;;;2.13;1.83;;;17.60;58.80;;;;;;5060314;27;20455;-82
2022/02/09 07:27:46;;;;;;;2.50;2.30;;;17.60;58.80;;;;;;5050196;28;20446;-82
2022/02/09 07:30:14;;;;;;;2.73;2.53;;;17.60;58.90;;;;;;5050063;28;20438;-82
2022/02/09 07:32:42;;;;;;;3.13;2.40;;;17.60;58.80;;;;;;5049957;28;20477;-82
2022/02/09 07:35:10;;;;;;;2.80;2.60;;;17.60;58.70;;;;;;5049958;28;20450;-82
2022/02/09 07:37:38;;;;;;;2.07;1.97;;;17.60;58.80;;;;;;5050086;27;20447;-82
2022/02/09 07:40:11;;;;;;;2.33;2.23;;;17.60;58.60;;;;;;5066726;27;20425;-82
2022/02/09 07:42:44;;;;;;;2.20;2.10;;;17.70;58.80;;;;;;5069810;27;20423;-82
2022/02/09 07:45:39;;;;;;;2.00;1.90;;;17.70;58.60;;;;;;5050583;28;20490;-82
2022/02/09 07:48:25;;;;;;;3.33;2.20;;;17.60;58.50;;;;;;5050212;28;20438;-82
2022/02/09 07:51:16;;;;;;;3.07;2.30;;;17.60;58.80;;;;;;5050081;28;20435;-82
2022/02/09 07:53:51;;;;;;;3.37;2.30;;;17.70;58.80;;;;;;5050177;27;21003;-82
2022/02/09 07:56:20;;;;;;;2.40;2.20;;;17.70;58.70;;;;;;5044455;28;20455;-82
2022/02/09 07:58:48;;;;;;;1.90;1.80;;;17.70;58.60;;;;;;5140878;27;20468;-82
2022/02/09 08:01:16;;;;;;;2.10;2.00;;;17.80;58.90;;;;;;5154791;27;20430;-82
2022/02/09 08:03:43;;;;;;;2.60;1.97;;;17.70;58.60;;;;;;5154480;27;20439;-82
2022/02/09 08:06:11;;;;;;;2.23;2.10;;;17.70;58.60;;;;;;5154881;27;20498;-82
2022/02/09 08:08:42;;;;;;;2.13;2.03;;;17.70;58.60;;;;;;5154463;27;20482;-82
2022/02/09 08:11:18;;;;;;;5.30;2.17;;;17.80;58.70;;;;;;5154697;27;20494;-82
2022/02/09 08:27:41;;;;;;;2.73;2.60;;;17.80;58.50;;;;;;5053695;28;20531;-82
2022/02/09 08:30:32;;;;;;;2.43;2.23;;;17.90;58.70;;;;;;5051985;27;20483;-82
2022/02/09 08:33:06;;;;;;;2.13;2.03;;;17.90;58.50;;;;;;5052754;27;20546;-82
2022/02/09 08:35:34;;;;;;;2.47;2.37;;;17.90;58.40;;;;;;5042182;28;20539;-82
2022/02/09 08:38:02;;;;;;;2.30;2.00;;;17.90;58.30;;;;;;5042590;27;20497;-82
2022/02/09 08:40:30;;;;;;;2.20;2.00;;;18.00;58.40;;;;;;5043856;27;20542;-82
2022/02/09 08:42:59;;;;;;;2.97;2.67;;;18.00;58.20;;;;;;5041745;28;20440;-82
2022/02/09 08:45:28;;;;;;;4.10;2.20;;;18.00;58.40;;;;;;5041315;28;20442;-82
2022/02/09 08:47:57;;;;;;;2.50;2.23;;;18.00;58.30;;;;;;5047365;27;20551;-82
2022/02/09 08:50:25;;;;;;;2.30;2.10;;;18.00;58.30;;;;;;5048939;27;20428;-82
2022/02/09 08:52:53;;;;;;;2.77;2.57;;;18.10;58.40;;;;;;5041289;28;20495;-82
2022/02/09 08:55:21;;;;;;;2.50;2.40;;;18.10;58.10;;;;;;5042502;28;20479;-82
2022/02/09 08:57:49;;;;;;;2.10;2.00;;;18.10;58.10;;;;;;5043440;28;20499;-82
2022/02/09 09:00:22;;;;;;;2.60;2.40;;;18.20;58.10;;;;;;5041875;28;20455;-82
2022/02/09 09:03:04;;;;;;;2.53;2.33;;;18.20;58.10;;;;;;5042024;28;20488;-82
2022/02/09 09:05:41;;;;;;;2.53;2.10;;;18.30;58.20;;;;;;5034374;27;20507;-82
2022/02/09 09:08:21;;;;;;;2.10;2.00;;;18.30;57.90;;;;;;5054275;27;20445;-82
2022/02/09 09:11:08;;;;;;;2.10;1.90;;;18.40;58.10;;;;;;5044467;28;20538;-82
2022/02/09 09:58:08;;;;;;;2.00;1.90;;;19.00;56.80;;;;;;5053614;28;20481;-84
2022/02/09 10:03:35;;;;;;;2.00;1.87;;;19.00;56.80;;;;;;5053621;27;20455;-84
2022/02/09 10:34:06;;;;;;;1.97;1.77;;;19.00;56.90;;;;;;5053211;28;20531;-84
2022/02/09 10:36:43;;;;;;;2.20;1.70;;;18.90;56.80;;;;;;5052994;28;20439;-84
2022/02/09 10:39:14;;;;;;;3.20;2.17;;;19.00;57.00;;;;;;5052664;28;20458;-83
2022/02/09 10:41:58;;;;;;;1.80;1.70;;;18.90;56.80;;;;;;5052679;27;20449;-84
2022/02/09 10:44:27;;;;;;;2.10;2.00;;;18.90;56.80;;;;;;5052871;28;20469;-84
2022/02/09 10:46:57;;;;;;;2.20;1.80;;;18.90;56.90;;;;;;5052777;27;20455;-84
2022/02/09 10:49:29;;;;;;;1.70;1.60;;;18.80;57.00;;;;;;5053138;28;20454;-84
2022/02/09 10:52:08;;;;;;;2.50;2.00;;;18.80;57.10;;;;;;5052805;28;20474;-84
2022/02/09 10:54:36;;;;;;;1.80;1.70;;;18.80;57.20;;;;;;5052678;28;20827;-84
2022/02/09 10:57:07;;;;;;;3.47;2.03;;;18.70;57.40;;;;;;5052387;28;20529;-84
2022/02/09 10:59:37;;;;;;;2.07;1.83;;;18.70;57.50;;;;;;5052943;28;20431;-84
2022/02/09 11:02:06;;;;;;;2.10;1.80;;;18.70;57.40;;;;;;5052307;28;20449;-84
2022/02/09 11:04:34;;;;;;;2.40;1.90;;;18.70;57.60;;;;;;5051838;27;20617;-84
2022/02/09 11:07:02;;;;;;;1.93;1.83;;;18.70;57.70;;;;;;5051936;27;20447;-85
2022/02/09 11:09:30;;;;;;;2.10;1.97;;;18.70;57.70;;;;;;5052323;27;20564;-84
2022/02/09 11:11:58;;;;;;;1.80;1.70;;;18.70;57.70;;;;;;5053095;28;20434;-84
2022/02/09 11:14:28;;;;;;;1.80;1.70;;;18.70;57.70;;;;;;5052162;28;20474;-84
2022/02/09 11:16:57;;;;;;;1.83;1.60;;;18.70;57.70;;;;;;5052274;27;20976;-84
2022/02/09 11:19:32;;;;;;;1.77;1.67;;;18.80;57.90;;;;;;5051726;28;20994;-84
2022/02/09 11:22:07;;;;;;;2.30;2.00;;;18.70;57.60;;;;;;5052012;27;20438;-84
2022/02/09 11:24:42;;;;;;;1.83;1.70;;;18.70;57.70;;;;;;5052297;27;20463;-84
2022/02/09 11:27:13;;;;;;;1.60;1.50;;;18.70;57.70;;;;;;5052081;27;20442;-84
2022/02/09 11:29:51;;;;;;;1.90;1.80;;;18.70;57.80;;;;;;5052028;28;20487;-83
2022/02/09 11:32:40;;;;;;;1.70;1.70;;;18.70;57.90;;;;;;5051390;27;20510;-84
2022/02/09 11:35:32;;;;;;;1.70;1.60;;;18.70;57.90;;;;;;5051841;28;20480;-84
2022/02/09 11:38:15;;;;;;;1.90;1.80;;;18.70;57.90;;;;;;5051743;28;20443;-84
2022/02/09 11:40:49;;;;;;;2.13;2.03;;;18.70;58.00;;;;;;5051966;28;20470;-84
2022/02/09 11:47:11;;;;;;;2.67;1.70;;;18.70;57.80;;;;;;5051275;28;20937;-84
2022/02/09 11:52:56;;;;;;;2.00;1.87;;;18.70;57.90;;;;;;5055076;28;20419;-84
2022/02/09 12:01:37;;;;;;;2.50;2.30;;;18.60;58.00;;;;;;5054890;28;20431;-84
2022/02/09 12:10:21;;;;;;;1.80;1.70;;;18.50;58.20;;;;;;5054983;28;20430;-84
2022/02/09 12:12:56;;;;;;;1.93;1.83;;;18.40;58.30;;;;;;5055706;28;20487;-84
2022/02/09 12:15:51;;;;;;;1.93;1.83;;;18.40;58.30;;;;;;5055931;28;20530;-84
2022/02/09 12:18:27;;;;;;;2.70;1.83;;;18.50;58.60;;;;;;5054089;28;20490;-84
2022/02/09 12:20:59;;;;;;;1.50;1.40;;;18.40;58.50;;;;;;5052171;28;20430;-84
2022/02/09 12:23:35;;;;;;;1.60;1.50;;;18.40;58.50;;;;;;5051662;28;20431;-84
2022/02/09 12:26:11;;;;;;;3.23;1.80;;;18.40;58.60;;;;;;5051928;27;20562;-83
2022/02/09 12:28:41;;;;;;;1.83;1.73;;;18.40;58.50;;;;;;5052223;28;20430;-83
2022/02/09 12:31:09;;;;;;;1.33;1.33;;;18.40;58.50;;;;;;5052959;28;20466;-84
2022/02/09 12:33:41;;;;;;;1.70;1.60;;;18.40;58.60;;;;;;5051964;28;20496;-84
2022/02/09 12:36:12;;;;;;;2.53;2.13;;;18.40;58.50;;;;;;5052353;28;20413;-84
2022/02/09 12:38:41;;;;;;;1.67;1.60;;;18.30;58.40;;;;;;5051638;28;20438;-84
2022/02/09 12:41:17;;;;;;;1.97;1.87;;;18.30;58.60;;;;;;5051950;28;20481;-84
2022/02/09 12:43:54;;;;;;;1.70;1.60;;;18.30;58.70;;;;;;5051174;28;20937;-84
2022/02/09 12:46:23;;;;;;;2.20;1.87;;;18.30;58.70;;;;;;5051983;28;20430;-84
2022/02/09 12:48:51;;;;;;;1.63;1.53;;;18.30;58.70;;;;;;5051918;28;20579;-84
2022/02/09 12:51:28;;;;;;;1.70;1.70;;;18.30;58.60;;;;;;5051948;28;20431;-85
2022/02/09 12:54:00;;;;;;;1.60;1.50;;;18.30;58.60;;;;;;5052635;28;20537;-85
2022/02/09 12:56:28;;;;;;;3.73;1.80;;;18.30;58.60;;;;;;5052518;27;20460;-84
2022/02/09 12:59:01;;;;;;;1.43;1.43;;;18.30;58.70;;;;;;5051892;28;20495;-84
2022/02/09 13:01:39;;;;;;;1.70;1.60;;;18.30;58.70;;;;;;5052057;27;20442;-85
2022/02/09 13:04:07;;;;;;;2.60;1.67;;;18.30;58.70;;;;;;5051601;27;20473;-85
2022/02/09 13:06:37;;;;;;;1.60;1.43;;;18.30;59.30;;;;;;5051993;28;20503;-85
2022/02/09 13:09:04;;;;;;;1.90;1.80;;;18.30;58.70;;;;;;5052260;27;20967;-84
2022/02/09 13:11:42;;;;;;;1.60;1.50;;;18.30;58.60;;;;;;5052218;28;20426;-84
2022/02/09 13:14:13;;;;;;;1.57;1.47;;;18.30;58.70;;;;;;5051774;27;20512;-85
2022/02/09 13:16:55;;;;;;;1.90;1.80;;;18.30;58.70;;;;;;5051816;27;20455;-85
2022/02/09 14:51:32;;;;;;;1.73;1.63;;;18.10;59.20;;;;;;5087292;28;20460;-86
2022/02/09 14:54:08;;;;;;;1.50;1.40;;;18.10;59.30;;;;;;5100580;28;20453;-86
2022/02/09 14:56:53;;;;;;;1.77;1.67;;;18.10;59.20;;;;;;5091936;28;20422;-85
2022/02/09 14:59:34;;;;;;;3.70;1.90;;;18.10;59.30;;;;;;5090676;28;20466;-85
2022/02/09 15:02:06;;;;;;;1.73;1.50;;;18.10;59.30;;;;;;5090418;28;20474;-85
2022/02/09 15:04:50;;;;;;;1.70;1.60;;;18.10;59.30;;;;;;5090187;28;20458;-85
2022/02/09 15:07:28;;;;;;;6.93;1.93;;;18.10;59.40;;;;;;5078392;28;20449;-85
2022/02/09 15:10:02;;;;;;;1.70;1.60;;;18.10;59.40;;;;;;5078757;28;20445;-85
2022/02/09 15:12:44;;;;;;;1.63;1.53;;;18.10;59.90;;;;;;5078339;28;20452;-85
2022/02/09 15:15:25;;;;;;;2.13;1.73;;;18.10;59.30;;;;;;5078248;28;20511;-85
2022/02/09 15:18:19;;;;;;;1.53;1.43;;;18.10;59.40;;;;;;5079294;28;20480;-85
2022/02/09 15:21:11;;;;;;;1.50;1.43;;;18.10;59.40;;;;;;5079727;28;20539;-85
2022/02/09 15:23:37;;;;;;;2.37;1.50;;;18.10;59.40;;;;;;5079244;28;20434;-85
2022/02/09 15:26:05;;;;;;;1.37;1.30;;;18.10;59.40;;;;;;5079472;28;20442;-85
2022/02/09 15:28:36;;;;;;;1.60;1.50;;;18.10;60.00;;;;;;5079087;28;20479;-84
2022/02/09 15:31:09;;;;;;;1.40;1.30;;;18.10;59.50;;;;;;5091755;28;20448;-85
2022/02/09 15:33:41;;;;;;;1.70;1.60;;;18.10;59.40;;;;;;5096849;28;20425;-85
2022/02/09 15:36:44;;;;;;;1.60;1.50;;;18.00;60.10;;;;;;5096843;28;20962;-84
2022/02/09 15:39:13;;;;;;;1.60;1.50;;;18.00;59.60;;;;;;5079161;28;20491;-84
2022/02/09 15:41:56;;;;;;;1.53;1.43;;;18.10;59.60;;;;;;5077001;28;20515;-84
2022/02/09 15:58:56;;;;;;;1.90;1.70;;;18.00;59.70;;;;;;5076123;28;20461;-85
2022/02/09 16:07:35;;;;;;;2.30;1.70;;;17.90;59.70;;;;;;5075582;28;20453;-84
2022/02/09 16:09:45;;;;;;;1.70;1.60;;;18.00;59.80;;;;;;5075464;28;20500;-84
2022/02/09 16:23:32;;;;;;;1.70;1.60;;;17.90;59.90;;;;;;5095352;28;20441;-84
2022/02/09 16:34:50;;;;;;;1.50;1.40;;;17.90;59.90;;;;;;5094246;28;20555;-85
2022/02/09 16:45:59;;;;;;;1.63;1.53;;;17.90;59.90;;;;;;5086371;28;20560;-85
2022/02/09 16:48:29;;;;;;;1.70;1.60;;;17.90;59.90;;;;;;5075049;28;20528;-85
2022/02/09 16:51:01;;;;;;;1.67;1.57;;;17.90;60.00;;;;;;5080342;28;20426;-85
2022/02/09 16:53:45;;;;;;;2.70;1.60;;;17.90;59.90;;;;;;5083936;28;20453;-85
2022/02/09 17:18:49;;;;;;;2.03;1.83;;;17.80;60.00;;;;;;5091199;28;20446;-85
2022/02/09 17:21:18;;;;;;;2.23;2.07;;;17.80;60.20;;;;;;5103817;28;20414;-88
2022/02/09 17:23:48;;;;;;;2.67;1.57;;;17.80;60.00;;;;;;5088049;28;20442;-87
2022/02/09 17:26:16;;;;;;;1.70;1.60;;;17.80;60.10;;;;;;5094277;28;20441;-87
2022/02/09 17:28:44;;;;;;;2.20;2.00;;;17.90;60.20;;;;;;5081797;28;20818;-87
2022/02/09 17:31:27;;;;;;;1.50;1.40;;;17.80;60.10;;;;;;5087163;28;20476;-86
2022/02/09 17:37:06;;;;;;;1.60;1.50;;;17.80;60.10;;;;;;5073933;28;20475;-86
2022/02/09 17:53:49;;;;;;;2.00;1.77;;;17.80;60.40;;;;;;5091660;28;20484;-85
2022/02/09 17:56:26;;;;;;;2.93;1.77;;;17.80;60.30;;;;;;5096782;28;20860;-85
2022/02/09 17:59:00;;;;;;;1.83;1.73;;;17.80;60.50;;;;;;5098041;28;20479;-85
2022/02/09 18:01:44;;;;;;;2.60;2.20;;;17.80;60.30;;;;;;5098646;28;20441;-83
2022/02/09 18:04:12;;;;;;;2.00;1.63;;;17.80;60.20;;;;;;5099156;28;20464;-87
2022/02/09 18:06:46;;;;;;;3.80;1.87;;;17.80;60.20;;;;;;5102107;28;20433;-88
2022/02/09 18:09:21;;;;;;;3.03;1.67;;;17.80;60.20;;;;;;5090208;28;20445;-86
2022/02/09 18:12:12;;;;;;;2.93;1.83;;;17.80;60.30;;;;;;5099262;28;20465;-85
2022/02/09 18:15:14;;;;;;;1.93;1.73;;;17.80;60.30;;;;;;5101794;28;20529;-87
2022/02/09 18:27:16;;;;;;;2.00;1.90;;;17.80;60.50;;;;;;5092346;28;20444;-86
2022/02/09 18:29:42;;;;;;;2.63;2.07;;;17.80;60.50;;;;;;5102872;28;20456;-85
2022/02/09 18:37:56;;;;;;;2.27;2.03;;;17.80;60.60;;;;;;5098026;28;20437;-86
2022/02/09 18:43:13;;;;;;;7.07;2.10;;;17.80;60.70;;;;;;5103524;28;20465;-87
2022/02/09 18:45:47;;;;;;;2.67;1.90;;;17.80;60.70;;;;;;5099992;28;20461;-86
2022/02/09 18:48:37;;;;;;;3.20;2.17;;;17.80;60.80;;;;;;5098895;28;20580;-85
2022/02/09 18:57:00;;;;;;;5.03;2.30;;;17.80;60.70;;;;;;5053059;28;20446;-85
2022/02/09 18:59:47;;;;;;;2.30;1.80;;;17.70;60.50;;;;;;5053070;28;20450;-86
2022/02/09 19:05:22;;;;;;;4.00;1.80;;;17.70;60.40;;;;;;5086484;28;20467;-84
2022/02/09 19:08:17;;;;;;;3.00;2.27;;;17.70;60.50;;;;;;5096368;28;20522;-82
2022/02/09 19:19:22;;;;;;;2.70;1.73;;;17.70;60.40;;;;;;5085888;28;20472;-83
2022/02/09 19:28:06;;;;;;;4.07;2.00;;;17.70;60.40;;;;;;5085299;28;20481;-85
2022/02/09 19:47:11;;;;;;;3.77;1.93;;;17.70;60.20;;;;;;5096405;28;20827;-84
2022/02/09 19:52:45;;;;;;;3.83;2.27;;;17.70;60.20;;;;;;5019354;28;20516;-84
2022/02/09 19:55:34;;;;;;;3.30;1.87;;;17.60;60.20;;;;;;5078971;28;20483;-84
2022/02/09 19:58:03;;;;;;;3.23;2.33;;;17.60;60.20;;;;;;5087644;28;20417;-84
2022/02/09 20:00:34;;;;;;;2.37;2.17;;;17.70;60.30;;;;;;5096174;28;20448;-84
2022/02/09 20:03:05;;;;;;;6.00;2.00;;;17.60;60.20;;;;;;5096101;28;20471;-84
2022/02/09 20:05:34;;;;;;;2.80;2.00;;;17.70;60.30;;;;;;5096660;28;20469;-84
2022/02/09 20:08:07;;;;;;;2.50;2.00;;;17.70;60.10;;;;;;5095921;28;20445;-84
2022/02/09 20:10:35;;;;;;;2.80;2.57;;;17.60;60.00;;;;;;5095187;28;20468;-84
2022/02/09 20:13:03;;;;;;;4.87;2.20;;;17.70;60.00;;;;;;5097537;28;20864;-86
2022/02/09 20:15:31;;;;;;;3.60;2.00;;;17.60;59.90;;;;;;5096738;28;20463;-84
2022/02/09 20:17:59;;;;;;;2.80;2.20;;;17.60;60.00;;;;;;5096609;28;20436;-85
2022/02/09 20:20:30;;;;;;;2.50;2.40;;;17.60;60.00;;;;;;5096371;28;20494;-84
2022/02/09 20:22:59;;;;;;;2.53;2.30;;;17.60;60.00;;;;;;5098217;28;20464;-84
2022/02/09 20:25:29;;;;;;;4.70;2.50;;;17.60;60.00;;;;;;5099746;28;20478;-84
2022/02/09 20:27:57;;;;;;;6.70;2.30;;;17.60;60.00;;;;;;5098903;28;20453;-84
2022/02/09 20:30:32;;;;;;;2.60;2.40;;;17.50;60.00;;;;;;5100601;28;20472;-84
2022/02/09 20:33:05;;;;;;;3.70;2.77;;;17.60;59.90;;;;;;5101929;28;20440;-84
2022/02/09 20:35:33;;;;;;;3.63;2.50;;;17.50;60.00;;;;;;5100865;28;20468;-85
2022/02/09 20:38:01;;;;;;;5.93;2.30;;;17.50;59.90;;;;;;5101690;28;20517;-84
2022/02/09 20:40:38;;;;;;;3.40;2.23;;;17.50;59.90;;;;;;5098485;28;20478;-84
2022/02/09 20:43:08;;;;;;;2.30;2.20;;;17.50;60.00;;;;;;5097449;28;20468;-85
2022/02/09 20:45:38;;;;;;;2.47;2.17;;;17.50;59.90;;;;;;5076992;28;20457;-85
2022/02/09 20:48:13;;;;;;;2.40;2.20;;;17.50;59.80;;;;;;5076706;28;20480;-85
2022/02/09 20:50:41;;;;;;;2.43;2.20;;;17.50;59.80;;;;;;5077393;28;20457;-85
2022/02/09 20:53:09;;;;;;;3.83;2.13;;;17.40;59.90;;;;;;5077658;28;20430;-85
2022/02/09 20:55:40;;;;;;;2.50;2.30;;;17.40;59.90;;;;;;5077642;28;20454;-85
2022/02/09 20:58:08;;;;;;;2.07;1.97;;;17.40;60.00;;;;;;5077046;28;20495;-85
2022/02/09 21:00:41;;;;;;;2.97;2.70;;;17.30;60.00;;;;;;5084652;28;20527;-84
2022/02/09 21:03:22;;;;;;;4.23;2.30;;;17.30;60.00;;;;;;5098314;28;20468;-86
2022/02/09 21:06:04;;;;;;;2.67;2.47;;;17.30;60.00;;;;;;5097584;28;20468;-86
2022/02/09 21:08:44;;;;;;;2.73;2.40;;;17.30;60.20;;;;;;5102436;28;20509;-85
2022/02/09 21:11:23;;;;;;;2.03;1.93;;;17.30;59.90;;;;;;5104767;28;20460;-84
2022/02/09 21:14:00;;;;;;;2.60;2.20;;;17.30;60.00;;;;;;5096213;28;20421;-84
2022/02/09 21:16:47;;;;;;;2.60;2.40;;;17.30;60.00;;;;;;5096372;28;20437;-85
2022/02/09 21:50:50;;;;;;;2.40;2.20;;;17.30;59.80;;;;;;5112715;28;20441;-83
2022/02/09 21:55:59;;;;;;;4.17;2.80;;;17.30;59.80;;;;;;5070730;28;20454;-83
2022/02/09 21:58:40;;;;;;;4.33;1.97;;;17.30;59.70;;;;;;5105555;28;20469;-84
2022/02/09 22:07:09;;;;;;;2.67;2.37;;;17.20;59.60;;;;;;5111344;28;20444;-84
2022/02/09 22:20:57;;;;;;;2.37;2.17;;;17.30;59.80;;;;;;5112486;28;20520;-84
2022/02/09 22:28:59;;;;;;;4.20;2.70;;;17.20;59.60;;;;;;5093305;28;20475;-83
2022/02/09 22:31:40;;;;;;;2.90;2.60;;;17.20;59.60;;;;;;5092617;28;20449;-83
2022/02/09 22:48:00;;;;;;;3.03;2.77;;;17.20;59.60;;;;;;5105448;28;20466;-84
2022/02/09 22:50:44;;;;;;;2.40;2.30;;;17.20;59.50;;;;;;5112148;28;20432;-84
2022/02/09 22:55:58;;;;;;;2.73;2.53;;;17.20;59.50;;;;;;5112574;28;20456;-84
2022/02/09 22:58:25;;;;;;;4.50;2.30;;;17.30;59.70;;;;;;5112494;28;20421;-84
2022/02/09 23:01:01;;;;;;;3.30;2.80;;;17.20;59.50;;;;;;5112253;28;20456;-84
2022/02/09 23:03:37;;;;;;;3.17;2.70;;;17.30;59.50;;;;;;5112576;28;20446;-84
2022/02/09 23:06:24;;;;;;;2.63;2.40;;;17.20;59.40;;;;;;5111691;28;20436;-84
2022/02/09 23:12:05;;;;;;;4.03;2.90;;;17.30;59.50;;;;;;5111794;28;20459;-83
2022/02/09 23:14:43;;;;;;;3.47;2.73;;;17.30;59.40;;;;;;5092623;28;20450;-83
2022/02/09 23:17:39;;;;;;;4.10;2.50;;;17.30;59.40;;;;;;5092371;28;20469;-83
2022/02/09 23:20:40;;;;;;;2.50;2.30;;;17.30;59.30;;;;;;5093068;28;20426;-83
2022/02/09 23:54:10;;;;;;;2.47;2.37;;;17.30;59.30;;;;;;5111818;28;20424;-84
